createdAt,value
2018-12-15T00:01:33.132Z,55.40
2018-12-15T00:04:01.576Z,55.60
2018-12-15T00:06:30.040Z,56.20
2018-12-15T00:08:59.394Z,56.20
2018-12-15T00:11:27.879Z,56.40
2018-12-15T00:13:56.326Z,56.10
2018-12-15T00:16:24.919Z,56.10
2018-12-15T00:18:53.426Z,56.30
2018-12-15T00:21:21.916Z,55.80
2018-12-15T00:23:50.390Z,55.80
2018-12-15T00:26:18.870Z,55.70
2018-12-15T00:28:47.334Z,55.80
2018-12-15T00:31:15.779Z,56.40
2018-12-15T00:33:44.891Z,56.00
2018-12-15T00:36:13.488Z,56.10
2018-12-15T00:38:42.084Z,56.60
2018-12-15T00:41:10.592Z,56.60
2018-12-15T00:43:39.148Z,56.90
2018-12-15T00:46:07.587Z,56.40
2018-12-15T00:48:36.105Z,56.30
2018-12-15T00:51:04.682Z,56.00
2018-12-15T00:53:33.215Z,56.40
2018-12-15T00:56:01.714Z,57.10
2018-12-15T00:58:30.205Z,57.30
2018-12-15T01:00:58.687Z,57.00
2018-12-15T01:03:27.826Z,57.00
2018-12-15T01:05:56.325Z,56.80
2018-12-15T01:08:24.832Z,56.90
2018-12-15T01:10:53.288Z,57.30
2018-12-15T01:13:22.064Z,57.80
2018-12-15T01:15:50.557Z,57.30
2018-12-15T01:18:19.018Z,57.30
2018-12-15T01:20:47.461Z,58.10
2018-12-15T01:23:15.947Z,57.60
2018-12-15T01:25:44.467Z,57.40
2018-12-15T01:28:12.957Z,57.80
2018-12-15T01:30:41.493Z,57.60
2018-12-15T01:33:09.934Z,57.60
2018-12-15T01:35:38.397Z,57.40
2018-12-15T01:38:06.853Z,57.50
2018-12-15T01:40:35.348Z,57.40
2018-12-15T01:43:04.065Z,57.60
2018-12-15T01:45:32.582Z,57.90
2018-12-15T01:48:01.032Z,57.90
2018-12-15T01:50:29.489Z,58.10
2018-12-15T01:52:57.966Z,58.10
2018-12-15T01:55:26.565Z,58.40
2018-12-15T01:57:55.009Z,59.20
2018-12-15T02:00:23.730Z,58.70
2018-12-15T02:02:52.167Z,58.60
2018-12-15T02:05:20.882Z,59.10
2018-12-15T02:07:49.339Z,58.90
2018-12-15T02:10:17.854Z,59.60
2018-12-15T02:12:46.317Z,58.90
2018-12-15T02:15:14.813Z,58.90
2018-12-15T02:17:43.286Z,59.00
2018-12-15T02:20:11.778Z,58.50
2018-12-15T02:22:40.319Z,58.90
2018-12-15T02:25:08.767Z,58.20
2018-12-15T02:27:37.253Z,58.00
2018-12-15T02:30:06.821Z,57.50
2018-12-15T02:32:35.284Z,57.40
2018-12-15T02:35:03.897Z,57.30
2018-12-15T02:37:36.143Z,57.30
2018-12-15T02:40:06.679Z,57.30
2018-12-15T02:42:35.225Z,57.30
2018-12-15T02:45:03.935Z,57.60
2018-12-15T02:47:32.430Z,57.40
2018-12-15T02:50:00.859Z,57.40
2018-12-15T02:52:29.301Z,57.40
2018-12-15T02:54:57.751Z,57.50
2018-12-15T02:57:26.298Z,57.30
2018-12-15T02:59:54.759Z,57.80
2018-12-15T03:02:23.216Z,57.00
2018-12-15T03:04:51.659Z,56.80
2018-12-15T03:07:20.139Z,57.10
2018-12-15T03:09:48.582Z,57.30
2018-12-15T03:12:17.028Z,57.50
2018-12-15T03:14:45.508Z,57.90
2018-12-15T03:17:13.944Z,57.50
2018-12-15T03:19:42.420Z,57.10
2018-12-15T03:22:10.882Z,57.20
2018-12-15T03:24:39.326Z,57.20
2018-12-15T03:27:07.758Z,57.50
2018-12-15T03:29:36.238Z,57.50
2018-12-15T03:32:04.697Z,58.00
2018-12-15T03:34:33.272Z,58.00
2018-12-15T03:37:01.727Z,57.80
2018-12-15T03:39:30.257Z,57.20
2018-12-15T03:41:58.829Z,57.30
2018-12-15T03:44:27.309Z,57.60
2018-12-15T03:46:55.771Z,57.60
2018-12-15T03:49:24.839Z,57.60
2018-12-15T03:51:53.251Z,57.70
2018-12-15T03:54:21.725Z,57.70
2018-12-15T03:56:50.203Z,58.20
2018-12-15T03:59:19.363Z,58.00
2018-12-15T04:01:47.850Z,57.90
2018-12-15T04:04:17.309Z,58.00
2018-12-15T04:06:45.786Z,58.10
2018-12-15T04:09:14.212Z,58.20
2018-12-15T04:11:42.721Z,57.70
2018-12-15T04:14:11.176Z,57.60
2018-12-15T04:16:39.665Z,57.70
2018-12-15T04:19:08.113Z,58.00
2018-12-15T04:21:36.667Z,58.10
2018-12-15T04:24:05.117Z,58.10
2018-12-15T04:26:33.739Z,58.10
2018-12-15T04:29:02.190Z,58.80
2018-12-15T04:31:30.680Z,58.10
2018-12-15T04:33:59.165Z,58.70
2018-12-15T04:36:27.624Z,58.10
2018-12-15T04:38:56.078Z,58.50
2018-12-15T04:41:24.570Z,58.30
2018-12-15T04:43:53.234Z,58.10
2018-12-15T04:46:21.676Z,57.80
2018-12-15T04:48:50.156Z,58.00
2018-12-15T04:51:19.026Z,58.20
2018-12-15T04:53:47.505Z,58.50
2018-12-15T04:56:15.936Z,58.30
2018-12-15T04:58:44.409Z,58.50
2018-12-15T05:01:12.964Z,58.90
2018-12-15T05:03:41.431Z,59.00
2018-12-15T05:06:09.886Z,58.80
2018-12-15T05:08:38.353Z,58.60
2018-12-15T05:11:06.811Z,58.70
2018-12-15T05:13:35.304Z,58.60
2018-12-15T05:16:03.761Z,58.60
2018-12-15T05:18:32.376Z,58.60
2018-12-15T05:21:00.860Z,58.70
2018-12-15T05:23:29.437Z,58.50
2018-12-15T05:25:57.975Z,58.20
2018-12-15T05:28:26.469Z,58.30
2018-12-15T05:30:54.966Z,58.10
2018-12-15T05:33:23.412Z,57.90
2018-12-15T05:35:51.967Z,57.80
2018-12-15T05:38:20.370Z,57.90
2018-12-15T05:40:48.834Z,57.80
2018-12-15T05:43:17.361Z,58.20
2018-12-15T05:45:45.907Z,58.40
2018-12-15T05:48:14.324Z,58.20
2018-12-15T05:50:42.775Z,58.10
2018-12-15T05:53:11.194Z,58.20
2018-12-15T05:55:39.694Z,58.50
2018-12-15T05:58:08.139Z,58.60
2018-12-15T06:00:36.610Z,58.80
2018-12-15T06:03:05.003Z,59.30
2018-12-15T06:05:33.619Z,59.00
2018-12-15T06:08:02.055Z,58.70
2018-12-15T06:10:30.508Z,58.70
2018-12-15T06:12:58.989Z,59.10
2018-12-15T06:15:27.447Z,59.00
2018-12-15T06:17:55.971Z,59.10
2018-12-15T06:20:24.453Z,59.00
2018-12-15T06:22:52.877Z,58.90
2018-12-15T06:25:21.285Z,59.00
2018-12-15T06:27:49.751Z,59.30
2018-12-15T06:30:18.200Z,59.00
2018-12-15T06:32:46.646Z,59.40
2018-12-15T06:35:15.074Z,58.80
2018-12-15T06:37:43.571Z,58.90
2018-12-15T06:40:12.058Z,59.10
2018-12-15T06:42:40.548Z,59.20
2018-12-15T06:45:09.212Z,59.50
2018-12-15T06:47:37.687Z,59.50
2018-12-15T06:50:06.403Z,59.50
2018-12-15T06:52:34.851Z,59.60
2018-12-15T06:55:03.490Z,59.80
2018-12-15T06:57:31.978Z,59.80
2018-12-15T07:00:00.440Z,60.00
2018-12-15T07:02:29.047Z,60.00
2018-12-15T07:04:57.553Z,60.30
2018-12-15T07:07:26.032Z,59.90
2018-12-15T07:09:54.460Z,59.70
2018-12-15T07:12:22.919Z,59.70
2018-12-15T07:14:51.427Z,59.80
2018-12-15T07:17:19.886Z,60.00
2018-12-15T07:19:48.353Z,60.00
2018-12-15T07:22:16.854Z,60.00
2018-12-15T07:24:45.295Z,61.30
2018-12-15T07:27:13.740Z,59.90
2018-12-15T07:29:42.423Z,59.60
2018-12-15T07:32:11.012Z,59.30
2018-12-15T07:34:39.489Z,58.90
2018-12-15T07:37:07.984Z,58.80
2018-12-15T07:39:36.527Z,59.30
2018-12-15T07:42:05.331Z,59.20
2018-12-15T07:44:33.944Z,59.50
2018-12-15T07:47:03.111Z,59.60
2018-12-15T07:49:31.564Z,60.30
2018-12-15T07:52:00.150Z,60.50
2018-12-15T07:54:28.674Z,60.40
2018-12-15T07:56:57.128Z,60.30
2018-12-15T07:59:25.644Z,60.40
2018-12-15T08:01:54.324Z,59.90
2018-12-15T08:04:22.879Z,60.50
2018-12-15T08:06:51.374Z,60.90
2018-12-15T08:09:19.922Z,60.90
2018-12-15T08:11:53.687Z,61.10
2018-12-15T08:14:22.215Z,60.90
2018-12-15T08:16:50.812Z,61.40
2018-12-15T08:19:19.277Z,61.20
2018-12-15T08:21:48.333Z,61.10
2018-12-15T08:24:17.373Z,61.30
2018-12-15T08:26:45.892Z,61.20
2018-12-15T08:29:14.458Z,61.20
2018-12-15T08:31:42.930Z,61.40
2018-12-15T08:34:12.335Z,61.50
2018-12-15T08:36:41.158Z,61.40
2018-12-15T08:39:09.909Z,61.50
2018-12-15T08:41:38.393Z,61.70
2018-12-15T08:44:06.959Z,61.40
2018-12-15T08:46:35.439Z,61.40
2018-12-15T08:49:04.688Z,61.70
2018-12-15T08:51:33.546Z,61.60
2018-12-15T08:54:02.039Z,61.70
2018-12-15T08:56:30.566Z,61.60
2018-12-15T08:58:59.050Z,62.10
2018-12-15T09:01:27.468Z,61.90
2018-12-15T09:03:56.031Z,62.20
2018-12-15T09:06:24.597Z,62.20
2018-12-15T09:08:53.067Z,62.30
2018-12-15T09:11:21.572Z,61.80
2018-12-15T09:13:50.072Z,62.20
2018-12-15T09:16:18.599Z,62.10
2018-12-15T09:18:47.048Z,62.50
2018-12-15T09:21:15.529Z,61.90
2018-12-15T09:23:44.215Z,62.20
2018-12-15T09:26:12.679Z,61.70
2018-12-15T09:28:41.171Z,61.70
2018-12-15T09:31:09.646Z,61.70
2018-12-15T09:33:38.142Z,61.50
2018-12-15T09:36:06.641Z,61.50
2018-12-15T09:38:35.128Z,61.40
2018-12-15T09:41:03.763Z,61.20
2018-12-15T09:43:32.262Z,61.40
2018-12-15T09:46:00.820Z,61.50
2018-12-15T09:48:29.284Z,61.50
2018-12-15T09:50:57.800Z,61.80
2018-12-15T09:53:26.324Z,61.50
2018-12-15T09:55:54.758Z,61.00
2018-12-15T09:58:23.235Z,61.40
2018-12-15T10:00:51.753Z,61.70
2018-12-15T10:03:20.208Z,61.70
2018-12-15T10:05:48.682Z,61.60
2018-12-15T10:08:17.095Z,61.30
2018-12-15T10:10:45.640Z,61.50
2018-12-15T10:13:14.126Z,61.10
2018-12-15T10:15:42.634Z,61.40
2018-12-15T10:18:11.126Z,61.70
2018-12-15T10:20:39.615Z,61.70
2018-12-15T10:23:08.130Z,61.40
2018-12-15T10:25:36.716Z,62.10
2018-12-15T10:28:05.472Z,62.00
2018-12-15T10:30:39.427Z,63.20
2018-12-15T10:33:08.509Z,62.00
2018-12-15T10:35:37.135Z,61.70
2018-12-15T10:38:05.637Z,61.70
2018-12-15T10:40:34.063Z,61.20
2018-12-15T10:43:02.635Z,60.80
2018-12-15T10:45:31.117Z,61.50
2018-12-15T10:47:59.618Z,61.40
2018-12-15T10:50:28.275Z,61.90
2018-12-15T10:52:56.744Z,62.00
2018-12-15T10:55:25.186Z,61.90
2018-12-15T10:57:53.729Z,62.00
2018-12-15T11:00:26.267Z,62.20
2018-12-15T11:02:55.203Z,62.10
2018-12-15T11:05:30.093Z,62.10
2018-12-15T11:07:58.611Z,62.00
2018-12-15T11:10:27.080Z,62.50
2018-12-15T11:12:55.642Z,61.90
2018-12-15T11:15:24.099Z,61.60
2018-12-15T11:17:52.595Z,61.90
2018-12-15T11:20:21.083Z,61.80
2018-12-15T11:22:49.540Z,62.30
2018-12-15T11:25:17.997Z,63.30
2018-12-15T11:27:46.466Z,61.80
2018-12-15T11:30:14.914Z,61.80
2018-12-15T11:32:43.363Z,62.00
2018-12-15T11:35:11.795Z,62.00
2018-12-15T11:37:40.256Z,62.10
2018-12-15T11:40:08.818Z,62.40
2018-12-15T11:42:37.364Z,61.70
2018-12-15T11:45:06.390Z,61.30
2018-12-15T11:47:34.894Z,61.20
2018-12-15T11:50:03.351Z,61.30
2018-12-15T11:52:31.839Z,61.80
2018-12-15T11:55:00.348Z,61.60
2018-12-15T11:57:28.914Z,61.40
2018-12-15T11:59:57.436Z,61.90
2018-12-15T12:02:31.714Z,61.60
2018-12-15T12:04:56.462Z,61.80
2018-12-15T12:07:24.938Z,61.10
2018-12-15T12:09:53.427Z,61.00
2018-12-15T12:12:21.986Z,60.90
2018-12-15T12:14:50.538Z,60.80
2018-12-15T12:17:18.998Z,61.20
2018-12-15T12:19:50.286Z,60.80
2018-12-15T12:22:18.145Z,61.00
2018-12-15T12:24:46.621Z,60.40
2018-12-15T12:27:15.145Z,60.00
2018-12-15T12:29:43.684Z,59.90
2018-12-15T12:32:12.186Z,60.00
2018-12-15T12:34:40.692Z,60.00
2018-12-15T12:37:09.262Z,59.90
2018-12-15T12:39:37.729Z,60.10
2018-12-15T12:42:06.253Z,59.80
2018-12-15T12:44:34.862Z,59.80
2018-12-15T12:47:03.553Z,59.70
2018-12-15T12:49:32.024Z,59.70
2018-12-15T12:52:00.472Z,59.10
2018-12-15T12:54:29.043Z,59.50
2018-12-15T12:56:57.587Z,59.40
2018-12-15T12:59:26.071Z,59.50
2018-12-15T13:01:54.560Z,59.10
2018-12-15T13:04:23.010Z,59.60
2018-12-15T13:06:51.822Z,59.50
2018-12-15T13:09:20.304Z,59.40
2018-12-15T13:11:48.938Z,59.40
2018-12-15T13:14:17.560Z,59.70
2018-12-15T13:16:46.002Z,59.80
2018-12-15T13:19:14.516Z,59.70
2018-12-15T13:21:42.998Z,59.60
2018-12-15T13:24:11.517Z,59.30
2018-12-15T13:26:40.011Z,59.20
2018-12-15T13:29:08.593Z,59.20
2018-12-15T13:31:37.104Z,59.70
2018-12-15T13:34:05.873Z,59.60
2018-12-15T13:36:34.341Z,59.80
2018-12-15T13:39:04.085Z,59.50
2018-12-15T13:41:32.693Z,59.30
2018-12-15T13:44:01.201Z,58.90
2018-12-15T13:46:34.313Z,59.00
2018-12-15T13:49:02.776Z,59.30
2018-12-15T13:51:31.307Z,59.30
2018-12-15T13:53:59.846Z,58.80
2018-12-15T13:56:28.282Z,59.00
2018-12-15T13:58:56.726Z,59.00
2018-12-15T14:01:25.171Z,59.00
2018-12-15T14:03:53.659Z,59.10
2018-12-15T14:06:22.215Z,59.30
2018-12-15T14:08:50.812Z,59.40
2018-12-15T14:11:19.372Z,59.80
2018-12-15T14:13:47.863Z,59.60
2018-12-15T14:16:16.354Z,59.60
2018-12-15T14:18:44.805Z,59.70
2018-12-15T14:21:13.361Z,60.00
2018-12-15T14:23:41.974Z,59.70
2018-12-15T14:26:10.575Z,59.80
2018-12-15T14:28:39.020Z,60.00
2018-12-15T14:31:07.559Z,60.10
2018-12-15T14:33:36.022Z,60.00
2018-12-15T14:36:04.517Z,60.10
2018-12-15T14:38:33.045Z,59.80
2018-12-15T14:41:01.505Z,60.30
2018-12-15T14:43:30.072Z,60.30
2018-12-15T14:45:58.564Z,60.30
2018-12-15T14:48:27.018Z,60.30
2018-12-15T14:50:55.539Z,60.30
2018-12-15T14:53:24.079Z,60.50
2018-12-15T14:55:52.596Z,60.70
2018-12-15T14:58:21.274Z,61.10
2018-12-15T15:00:49.893Z,61.50
2018-12-15T15:03:18.527Z,61.40
2018-12-15T15:05:47.005Z,61.70
2018-12-15T15:08:15.531Z,61.20
2018-12-15T15:10:44.634Z,61.20
2018-12-15T15:13:13.147Z,61.70
2018-12-15T15:15:41.912Z,62.00
2018-12-15T15:18:10.380Z,62.40
2018-12-15T15:20:39.003Z,62.40
2018-12-15T15:23:07.444Z,62.30
2018-12-15T15:25:35.901Z,62.40
2018-12-15T15:28:04.427Z,62.90
2018-12-15T15:30:32.925Z,63.10
2018-12-15T15:33:01.443Z,63.50
2018-12-15T15:35:29.955Z,63.50
2018-12-15T15:37:58.428Z,63.90
2018-12-15T15:40:27.033Z,64.00
2018-12-15T15:42:55.635Z,64.10
2018-12-15T15:45:24.156Z,64.30
2018-12-15T15:47:52.593Z,64.30
2018-12-15T15:50:22.361Z,64.30
2018-12-15T15:52:50.867Z,64.30
2018-12-15T15:55:19.408Z,64.50
2018-12-15T15:57:47.879Z,64.30
2018-12-15T16:00:16.391Z,64.50
2018-12-15T16:02:44.851Z,64.50
2018-12-15T16:05:13.353Z,64.70
2018-12-15T16:07:42.311Z,65.00
2018-12-15T16:10:11.782Z,65.20
2018-12-15T16:12:40.285Z,65.60
2018-12-15T16:15:10.058Z,65.90
2018-12-15T16:17:38.567Z,66.10
2018-12-15T16:20:10.071Z,65.90
2018-12-15T16:22:38.564Z,66.00
2018-12-15T16:25:07.292Z,65.80
2018-12-15T16:27:35.770Z,66.10
2018-12-15T16:30:07.076Z,65.80
2018-12-15T16:32:35.566Z,65.80
2018-12-15T16:35:04.911Z,65.80
2018-12-15T16:37:33.560Z,66.00
2018-12-15T16:40:02.185Z,65.90
2018-12-15T16:42:30.822Z,65.90
2018-12-15T16:44:59.375Z,65.80
2018-12-15T16:47:28.314Z,65.60
2018-12-15T16:49:56.903Z,66.20
2018-12-15T16:52:26.043Z,65.80
2018-12-15T16:54:54.971Z,65.60
2018-12-15T16:57:23.512Z,65.60
2018-12-15T16:59:52.344Z,65.60
2018-12-15T17:02:21.219Z,65.70
2018-12-15T17:04:52.720Z,65.80
2018-12-15T17:07:21.601Z,65.80
2018-12-15T17:09:55.073Z,65.90
2018-12-15T17:12:23.535Z,66.10
2018-12-15T17:14:52.174Z,66.30
2018-12-15T17:17:20.828Z,66.40
2018-12-15T17:19:49.307Z,66.80
2018-12-15T17:22:19.236Z,66.80
2018-12-15T17:24:47.843Z,66.90
2018-12-15T17:27:27.151Z,67.00
2018-12-15T17:29:56.101Z,67.40
2018-12-15T17:32:24.749Z,67.70
2018-12-15T17:34:54.756Z,67.80
2018-12-15T17:37:23.565Z,67.90
2018-12-15T17:39:52.082Z,67.90
2018-12-15T17:42:20.715Z,68.00
2018-12-15T17:44:49.211Z,68.30
2018-12-15T17:47:19.768Z,68.30
2018-12-15T17:49:48.541Z,68.40
2018-12-15T17:52:17.055Z,68.40
2018-12-15T17:54:45.905Z,68.50
2018-12-15T17:57:14.611Z,68.40
2018-12-15T17:59:44.275Z,68.40
2018-12-15T18:02:13.867Z,68.70
2018-12-15T18:04:42.418Z,68.90
2018-12-15T18:07:12.854Z,68.80
2018-12-15T18:09:41.938Z,69.00
2018-12-15T18:12:10.814Z,69.00
2018-12-15T18:14:39.991Z,69.00
2018-12-15T18:17:09.160Z,69.10
2018-12-15T18:19:38.105Z,69.00
2018-12-15T18:22:07.172Z,69.30
2018-12-15T18:24:36.762Z,69.60
2018-12-15T18:27:05.455Z,69.70
2018-12-15T18:29:34.240Z,70.10
2018-12-15T18:32:02.890Z,70.20
2018-12-15T18:34:31.643Z,70.60
2018-12-15T18:37:00.296Z,70.70
2018-12-15T18:39:29.204Z,70.70
2018-12-15T18:41:58.917Z,70.70
2018-12-15T18:44:28.935Z,70.90
2018-12-15T18:46:57.812Z,71.10
2018-12-15T18:49:26.433Z,71.10
2018-12-15T18:51:55.425Z,71.40
2018-12-15T18:54:24.342Z,71.40
2018-12-15T18:56:53.240Z,71.60
2018-12-15T18:59:22.063Z,71.80
2018-12-15T19:01:50.581Z,71.90
2018-12-15T19:04:20.917Z,71.90
2018-12-15T19:06:49.633Z,72.40
2018-12-15T19:09:18.822Z,72.60
2018-12-15T19:11:48.650Z,72.70
2018-12-15T19:14:18.410Z,72.60
2018-12-15T19:16:46.904Z,72.70
2018-12-15T19:19:15.502Z,72.70
2018-12-15T19:21:44.614Z,72.90
2018-12-15T19:24:13.564Z,73.10
2018-12-15T19:26:43.180Z,73.00
2018-12-15T19:29:12.713Z,73.10
2018-12-15T19:31:42.722Z,73.20
2018-12-15T19:34:17.342Z,73.50
2018-12-15T19:36:42.300Z,73.70
2018-12-15T19:39:11.573Z,73.80
2018-12-15T19:41:40.167Z,73.80
2018-12-15T19:44:09.420Z,74.30
2018-12-15T19:46:37.919Z,74.20
2018-12-15T19:49:06.456Z,74.20
2018-12-15T19:51:34.998Z,74.30
2018-12-15T19:54:03.454Z,74.60
2018-12-15T19:56:32.993Z,74.90
2018-12-15T19:59:01.495Z,74.70
2018-12-15T20:01:29.986Z,74.80
2018-12-15T20:03:58.445Z,74.90
2018-12-15T20:06:26.931Z,75.10
2018-12-15T20:08:55.423Z,75.20
2018-12-15T20:11:23.997Z,75.20
2018-12-15T20:13:52.493Z,75.40
2018-12-15T20:16:20.960Z,74.90
2018-12-15T20:18:49.434Z,75.80
2018-12-15T20:21:17.957Z,75.50
2018-12-15T20:23:46.448Z,75.70
2018-12-15T20:26:15.035Z,75.70
2018-12-15T20:28:43.651Z,75.80
2018-12-15T20:31:12.162Z,75.90
2018-12-15T20:33:40.719Z,75.80
2018-12-15T20:36:09.381Z,75.80
2018-12-15T20:38:37.900Z,75.80
2018-12-15T20:41:06.435Z,75.50
2018-12-15T20:43:34.953Z,75.60
2018-12-15T20:46:03.480Z,76.30
2018-12-15T20:48:32.062Z,75.70
2018-12-15T20:51:00.584Z,75.60
2018-12-15T20:53:29.158Z,75.60
2018-12-15T20:55:57.699Z,75.30
2018-12-15T20:58:26.191Z,75.30
2018-12-15T21:00:54.672Z,75.00
2018-12-15T21:03:23.127Z,75.00
2018-12-15T21:05:51.671Z,75.00
2018-12-15T21:08:20.182Z,75.00
2018-12-15T21:10:48.735Z,74.60
2018-12-15T21:13:17.253Z,74.70
2018-12-15T21:15:47.937Z,74.60
2018-12-15T21:18:16.430Z,74.60
2018-12-15T21:20:45.087Z,74.50
2018-12-15T21:23:13.723Z,74.50
2018-12-15T21:25:42.521Z,74.40
2018-12-15T21:28:11.096Z,74.40
2018-12-15T21:30:39.736Z,74.30
2018-12-15T21:33:08.275Z,74.10
2018-12-15T21:35:36.872Z,74.00
2018-12-15T21:38:05.353Z,73.80
2018-12-15T21:40:33.844Z,73.80
2018-12-15T21:43:02.401Z,73.60
2018-12-15T21:45:31.056Z,73.50
2018-12-15T21:47:59.652Z,73.60
2018-12-15T21:50:28.126Z,73.10
2018-12-15T21:52:56.728Z,73.00
2018-12-15T21:55:25.258Z,73.00
2018-12-15T21:57:53.777Z,73.00
2018-12-15T22:00:22.255Z,72.30
2018-12-15T22:02:50.834Z,72.20
2018-12-15T22:05:19.324Z,72.00
2018-12-15T22:07:47.914Z,72.00
2018-12-15T22:10:16.440Z,71.60
2018-12-15T22:12:44.955Z,71.70
2018-12-15T22:15:13.489Z,71.50
2018-12-15T22:17:41.931Z,71.10
2018-12-15T22:20:10.827Z,71.00
2018-12-15T22:22:39.518Z,70.90
2018-12-15T22:25:08.123Z,70.70
2018-12-15T22:27:36.612Z,70.80
2018-12-15T22:30:05.865Z,70.70
2018-12-15T22:32:34.308Z,70.20
2018-12-15T22:35:02.797Z,70.30
2018-12-15T22:37:31.251Z,69.80
2018-12-15T22:39:59.745Z,70.20
2018-12-15T22:42:28.196Z,70.00
2018-12-15T22:44:57.591Z,70.60
2018-12-15T22:47:26.067Z,69.70
2018-12-15T22:49:54.582Z,69.50
2018-12-15T22:52:23.066Z,69.30
2018-12-15T22:54:51.666Z,69.30
2018-12-15T22:57:20.258Z,69.10
2018-12-15T22:59:48.845Z,69.20
2018-12-15T23:02:17.329Z,69.30
2018-12-15T23:04:45.819Z,69.20
2018-12-15T23:07:14.275Z,69.10
2018-12-15T23:09:42.873Z,68.80
2018-12-15T23:12:11.519Z,68.80
2018-12-15T23:14:40.163Z,68.50
2018-12-15T23:17:09.014Z,68.50
2018-12-15T23:19:37.496Z,68.80
2018-12-15T23:22:05.991Z,68.60
2018-12-15T23:24:34.537Z,68.70
2018-12-15T23:27:03.003Z,68.70
2018-12-15T23:29:38.206Z,68.70
2018-12-15T23:32:06.778Z,68.90
2018-12-15T23:34:35.297Z,68.60
2018-12-15T23:37:04.004Z,68.50
2018-12-15T23:39:32.637Z,68.30
2018-12-15T23:42:01.187Z,68.30
2018-12-15T23:44:29.670Z,68.20
2018-12-15T23:46:58.178Z,68.60
2018-12-15T23:49:26.714Z,67.80
2018-12-15T23:51:55.193Z,67.70
2018-12-15T23:54:23.674Z,67.50
2018-12-15T23:56:52.205Z,67.70
2018-12-15T23:59:20.770Z,68.50
